sensor_id;sensor_type;location;lat;lon;timestamp;pressure;altitude;pressure_sealevel;temperature
71960;BMP280;59832;51.146;14.024;2023-10-08T00:00:28;98294.72;;;15.19
71960;BMP280;59832;51.146;14.024;2023-10-08T00:03:13;98305.66;;;15.19
71960;BMP280;59832;51.146;14.024;2023-10-08T00:05:41;98297.97;;;15.19
71960;BMP280;59832;51.146;14.024;2023-10-08T00:08:08;98306.06;;;15.18
71960;BMP280;59832;51.146;14.024;2023-10-08T00:10:39;98306.78;;;15.18
71960;BMP280;59832;51.146;14.024;2023-10-08T00:13:11;98308.63;;;15.18
71960;BMP280;59832;51.146;14.024;2023-10-08T00:15:43;98304.22;;;15.18
71960;BMP280;59832;51.146;14.024;2023-10-08T00:18:16;98303.84;;;15.13
71960;BMP280;59832;51.146;14.024;2023-10-08T00:20:44;98300.94;;;15.14
71960;BMP280;59832;51.146;14.024;2023-10-08T00:23:29;98303.50;;;15.11
71960;BMP280;59832;51.146;14.024;2023-10-08T00:25:56;98296.53;;;15.08
71960;BMP280;59832;51.146;14.024;2023-10-08T00:28:24;98302.41;;;15.08
71960;BMP280;59832;51.146;14.024;2023-10-08T00:30:53;98304.25;;;15.08
71960;BMP280;59832;51.146;14.024;2023-10-08T00:33:20;98302.38;;;15.12
71960;BMP280;59832;51.146;14.024;2023-10-08T00:35:47;98302.41;;;15.08
71960;BMP280;59832;51.146;14.024;2023-10-08T00:38:14;98290.69;;;15.00
71960;BMP280;59832;51.146;14.024;2023-10-08T00:40:47;98292.91;;;14.98
71960;BMP280;59832;51.146;14.024;2023-10-08T00:43:35;98304.25;;;14.97
71960;BMP280;59832;51.146;14.024;2023-10-08T00:46:03;98298.03;;;14.91
71960;BMP280;59832;51.146;14.024;2023-10-08T00:48:31;98302.78;;;14.89
71960;BMP280;59832;51.146;14.024;2023-10-08T00:51:03;98304.97;;;14.87
71960;BMP280;59832;51.146;14.024;2023-10-08T00:54:08;98308.63;;;14.90
71960;BMP280;59832;51.146;14.024;2023-10-08T00:56:36;98307.91;;;14.86
71960;BMP280;59832;51.146;14.024;2023-10-08T00:59:35;98304.97;;;14.87
71960;BMP280;59832;51.146;14.024;2023-10-08T01:02:11;98301.31;;;14.85
71960;BMP280;59832;51.146;14.024;2023-10-08T01:04:46;98307.16;;;14.85
71960;BMP280;59832;51.146;14.024;2023-10-08T01:07:14;98313.41;;;14.84
71960;BMP280;59832;51.146;14.024;2023-10-08T01:09:44;98310.84;;;14.84
71960;BMP280;59832;51.146;14.024;2023-10-08T01:12:17;98319.97;;;14.89
71960;BMP280;59832;51.146;14.024;2023-10-08T01:14:54;98339.38;;;14.90
71960;BMP280;59832;51.146;14.024;2023-10-08T01:17:22;98353.28;;;14.57
71960;BMP280;59832;51.146;14.024;2023-10-08T01:19:53;98349.81;;;14.03
71960;BMP280;59832;51.146;14.024;2023-10-08T01:22:24;98340.47;;;13.60
71960;BMP280;59832;51.146;14.024;2023-10-08T01:24:54;98352.00;;;13.40
71960;BMP280;59832;51.146;14.024;2023-10-08T01:27:21;98356.97;;;13.18
71960;BMP280;59832;51.146;14.024;2023-10-08T01:29:51;98362.59;;;12.94
71960;BMP280;59832;51.146;14.024;2023-10-08T01:32:19;98363.13;;;12.73
71960;BMP280;59832;51.146;14.024;2023-10-08T01:34:47;98366.28;;;12.60
71960;BMP280;59832;51.146;14.024;2023-10-08T01:37:18;98373.09;;;12.52
71960;BMP280;59832;51.146;14.024;2023-10-08T01:39:45;98378.84;;;12.42
71960;BMP280;59832;51.146;14.024;2023-10-08T01:42:12;98388.78;;;12.51
71960;BMP280;59832;51.146;14.024;2023-10-08T01:44:49;98386.13;;;12.44
71960;BMP280;59832;51.146;14.024;2023-10-08T01:47:21;98393.44;;;12.42
71960;BMP280;59832;51.146;14.024;2023-10-08T01:49:52;98390.28;;;12.22
71960;BMP280;59832;51.146;14.024;2023-10-08T01:52:27;98386.06;;;12.37
71960;BMP280;59832;51.146;14.024;2023-10-08T01:54:53;98388.78;;;12.21
71960;BMP280;59832;51.146;14.024;2023-10-08T01:57:20;98391.56;;;12.39
71960;BMP280;59832;51.146;14.024;2023-10-08T01:59:47;98391.22;;;12.44
71960;BMP280;59832;51.146;14.024;2023-10-08T02:02:13;98409.34;;;12.31
71960;BMP280;59832;51.146;14.024;2023-10-08T02:04:42;98408.56;;;12.27
71960;BMP280;59832;51.146;14.024;2023-10-08T02:07:11;98409.03;;;12.37
71960;BMP280;59832;51.146;14.024;2023-10-08T02:09:40;98406.78;;;12.31
71960;BMP280;59832;51.146;14.024;2023-10-08T02:12:07;98405.63;;;12.25
71960;BMP280;59832;51.146;14.024;2023-10-08T02:14:34;98417.19;;;12.19
71960;BMP280;59832;51.146;14.024;2023-10-08T02:17:02;98415.06;;;12.21
71960;BMP280;59832;51.146;14.024;2023-10-08T02:19:33;98406.66;;;12.21
71960;BMP280;59832;51.146;14.024;2023-10-08T02:22:01;98426.09;;;12.29
71960;BMP280;59832;51.146;14.024;2023-10-08T02:24:30;98423.56;;;12.32
71960;BMP280;59832;51.146;14.024;2023-10-08T02:26:57;98413.25;;;12.22
71960;BMP280;59832;51.146;14.024;2023-10-08T02:29:26;98402.13;;;12.11
71960;BMP280;59832;51.146;14.024;2023-10-08T02:31:52;98414.03;;;12.00
71960;BMP280;59832;51.146;14.024;2023-10-08T02:34:20;98426.28;;;11.91
71960;BMP280;59832;51.146;14.024;2023-10-08T02:36:47;98445.66;;;11.95
71960;BMP280;59832;51.146;14.024;2023-10-08T02:39:14;98459.28;;;11.80
71960;BMP280;59832;51.146;14.024;2023-10-08T02:41:49;98472.03;;;11.80
71960;BMP280;59832;51.146;14.024;2023-10-08T02:44:16;98482.16;;;11.76
71960;BMP280;59832;51.146;14.024;2023-10-08T02:46:45;98501.44;;;11.74
71960;BMP280;59832;51.146;14.024;2023-10-08T02:49:14;98497.03;;;11.71
71960;BMP280;59832;51.146;14.024;2023-10-08T02:51:47;98505.63;;;11.63
71960;BMP280;59832;51.146;14.024;2023-10-08T02:54:17;98517.50;;;11.55
71960;BMP280;59832;51.146;14.024;2023-10-08T02:56:51;98537.09;;;11.51
71960;BMP280;59832;51.146;14.024;2023-10-08T02:59:18;98522.88;;;11.50
71960;BMP280;59832;51.146;14.024;2023-10-08T03:01:49;98522.13;;;11.50
71960;BMP280;59832;51.146;14.024;2023-10-08T03:04:22;98530.41;;;11.43
71960;BMP280;59832;51.146;14.024;2023-10-08T03:06:49;98535.84;;;11.22
71960;BMP280;59832;51.146;14.024;2023-10-08T03:09:17;98551.56;;;11.09
71960;BMP280;59832;51.146;14.024;2023-10-08T03:11:48;98565.97;;;11.01
71960;BMP280;59832;51.146;14.024;2023-10-08T03:14:16;98583.66;;;10.94
71960;BMP280;59832;51.146;14.024;2023-10-08T03:16:52;98587.94;;;10.74
71960;BMP280;59832;51.146;14.024;2023-10-08T03:19:22;98596.34;;;10.59
71960;BMP280;59832;51.146;14.024;2023-10-08T03:21:50;98582.72;;;10.36
71960;BMP280;59832;51.146;14.024;2023-10-08T03:24:23;98602.50;;;10.27
71960;BMP280;59832;51.146;14.024;2023-10-08T03:26:57;98606.25;;;10.17
71960;BMP280;59832;51.146;14.024;2023-10-08T03:29:35;98618.13;;;10.13
71960;BMP280;59832;51.146;14.024;2023-10-08T03:32:09;98628.00;;;10.15
71960;BMP280;59832;51.146;14.024;2023-10-08T03:34:43;98637.38;;;10.26
71960;BMP280;59832;51.146;14.024;2023-10-08T03:37:09;98636.44;;;10.19
71960;BMP280;59832;51.146;14.024;2023-10-08T03:39:41;98649.97;;;10.07
71960;BMP280;59832;51.146;14.024;2023-10-08T03:42:24;98649.69;;;9.96
71960;BMP280;59832;51.146;14.024;2023-10-08T03:44:52;98642.59;;;9.90
71960;BMP280;59832;51.146;14.024;2023-10-08T03:47:19;98637.97;;;9.80
71960;BMP280;59832;51.146;14.024;2023-10-08T03:49:48;98638.38;;;9.82
71960;BMP280;59832;51.146;14.024;2023-10-08T03:52:20;98639.78;;;9.79
71960;BMP280;59832;51.146;14.024;2023-10-08T03:54:52;98648.44;;;9.78
71960;BMP280;59832;51.146;14.024;2023-10-08T03:57:47;98653.97;;;9.80
71960;BMP280;59832;51.146;14.024;2023-10-08T04:00:15;98663.72;;;9.78
71960;BMP280;59832;51.146;14.024;2023-10-08T04:02:45;98682.16;;;9.75
71960;BMP280;59832;51.146;14.024;2023-10-08T04:05:36;98683.44;;;9.69
71960;BMP280;59832;51.146;14.024;2023-10-08T04:08:26;98681.50;;;9.78
71960;BMP280;59832;51.146;14.024;2023-10-08T04:11:21;98667.66;;;9.64
71960;BMP280;59832;51.146;14.024;2023-10-08T04:14:02;98656.13;;;9.66
71960;BMP280;59832;51.146;14.024;2023-10-08T04:16:29;98664.78;;;9.65
71960;BMP280;59832;51.146;14.024;2023-10-08T04:18:56;98673.16;;;9.66
71960;BMP280;59832;51.146;14.024;2023-10-08T04:21:23;98667.13;;;9.70
71960;BMP280;59832;51.146;14.024;2023-10-08T04:23:53;98679.19;;;9.73
71960;BMP280;59832;51.146;14.024;2023-10-08T04:26:20;98677.38;;;9.74
71960;BMP280;59832;51.146;14.024;2023-10-08T04:28:53;98678.97;;;9.78
71960;BMP280;59832;51.146;14.024;2023-10-08T04:31:29;98691.06;;;9.81
71960;BMP280;59832;51.146;14.024;2023-10-08T04:34:05;98682.03;;;9.84
71960;BMP280;59832;51.146;14.024;2023-10-08T04:36:52;98698.88;;;9.76
71960;BMP280;59832;51.146;14.024;2023-10-08T04:39:24;98682.16;;;9.75
71960;BMP280;59832;51.146;14.024;2023-10-08T04:42:02;98697.41;;;9.75
71960;BMP280;59832;51.146;14.024;2023-10-08T04:44:40;98695.59;;;9.76
71960;BMP280;59832;51.146;14.024;2023-10-08T04:47:07;98695.09;;;9.70
71960;BMP280;59832;51.146;14.024;2023-10-08T04:49:54;98724.84;;;9.70
71960;BMP280;59832;51.146;14.024;2023-10-08T04:52:20;98726.31;;;9.71
71960;BMP280;59832;51.146;14.024;2023-10-08T04:54:51;98721.75;;;9.76
71960;BMP280;59832;51.146;14.024;2023-10-08T04:57:19;98744.75;;;9.80
71960;BMP280;59832;51.146;14.024;2023-10-08T04:59:49;98752.13;;;9.85
71960;BMP280;59832;51.146;14.024;2023-10-08T05:02:24;98746.22;;;9.69
71960;BMP280;59832;51.146;14.024;2023-10-08T05:05:00;98753.22;;;9.84
71960;BMP280;59832;51.146;14.024;2023-10-08T05:07:35;98759.63;;;9.93
71960;BMP280;59832;51.146;14.024;2023-10-08T05:10:28;98772.28;;;9.78
71960;BMP280;59832;51.146;14.024;2023-10-08T05:12:55;98776.53;;;9.74
71960;BMP280;59832;51.146;14.024;2023-10-08T05:15:42;98785.75;;;9.54
71960;BMP280;59832;51.146;14.024;2023-10-08T05:18:28;98789.44;;;9.57
71960;BMP280;59832;51.146;14.024;2023-10-08T05:21:15;98792.06;;;9.48
71960;BMP280;59832;51.146;14.024;2023-10-08T05:23:52;98785.31;;;9.40
71960;BMP280;59832;51.146;14.024;2023-10-08T05:26:40;98788.59;;;9.40
71960;BMP280;59832;51.146;14.024;2023-10-08T05:29:15;98803.47;;;9.30
71960;BMP280;59832;51.146;14.024;2023-10-08T05:32:01;98809.25;;;9.06
71960;BMP280;59832;51.146;14.024;2023-10-08T05:34:46;98801.50;;;9.02
71960;BMP280;59832;51.146;14.024;2023-10-08T05:37:38;98798.44;;;9.09
71960;BMP280;59832;51.146;14.024;2023-10-08T05:40:08;98801.81;;;9.01
71960;BMP280;59832;51.146;14.024;2023-10-08T05:42:58;98801.81;;;9.01
71960;BMP280;59832;51.146;14.024;2023-10-08T05:45:39;98795.19;;;9.09
71960;BMP280;59832;51.146;14.024;2023-10-08T05:48:19;98794.84;;;9.10
71960;BMP280;59832;51.146;14.024;2023-10-08T05:50:54;98796.97;;;9.08
71960;BMP280;59832;51.146;14.024;2023-10-08T05:53:39;98809.78;;;9.12
71960;BMP280;59832;51.146;14.024;2023-10-08T05:56:15;98817.84;;;9.14
71960;BMP280;59832;51.146;14.024;2023-10-08T05:58:55;98822.19;;;9.13
71960;BMP280;59832;51.146;14.024;2023-10-08T06:01:41;98829.91;;;9.17
71960;BMP280;59832;51.146;14.024;2023-10-08T06:04:08;98843.34;;;9.17
71960;BMP280;59832;51.146;14.024;2023-10-08T06:06:58;98846.09;;;9.12
71960;BMP280;59832;51.146;14.024;2023-10-08T06:09:39;98846.53;;;9.14
71960;BMP280;59832;51.146;14.024;2023-10-08T06:12:06;98839.75;;;9.06
71960;BMP280;59832;51.146;14.024;2023-10-08T06:14:46;98843.84;;;9.11
71960;BMP280;59832;51.146;14.024;2023-10-08T06:17:31;98844.75;;;9.15
71960;BMP280;59832;51.146;14.024;2023-10-08T06:20:16;98863.56;;;9.14
71960;BMP280;59832;51.146;14.024;2023-10-08T06:22:43;98864.09;;;9.07
71960;BMP280;59832;51.146;14.024;2023-10-08T06:25:10;98865.22;;;9.10
71960;BMP280;59832;51.146;14.024;2023-10-08T06:27:44;98860.38;;;9.17
71960;BMP280;59832;51.146;14.024;2023-10-08T06:30:12;98866.47;;;9.24
71960;BMP280;59832;51.146;14.024;2023-10-08T06:32:43;98871.78;;;9.31
71960;BMP280;59832;51.146;14.024;2023-10-08T06:35:12;98883.63;;;9.27
71960;BMP280;59832;51.146;14.024;2023-10-08T06:37:45;98882.22;;;9.30
71960;BMP280;59832;51.146;14.024;2023-10-08T06:40:12;98884.38;;;9.40
71960;BMP280;59832;51.146;14.024;2023-10-08T06:42:58;98889.28;;;9.45
71960;BMP280;59832;51.146;14.024;2023-10-08T06:45:30;98912.94;;;9.37
71960;BMP280;59832;51.146;14.024;2023-10-08T06:47:59;98922.63;;;9.43
71960;BMP280;59832;51.146;14.024;2023-10-08T06:50:27;98923.00;;;9.33
71960;BMP280;59832;51.146;14.024;2023-10-08T06:52:53;98931.81;;;9.36
71960;BMP280;59832;51.146;14.024;2023-10-08T06:55:20;98951.81;;;9.37
71960;BMP280;59832;51.146;14.024;2023-10-08T06:57:51;98939.66;;;9.43
71960;BMP280;59832;51.146;14.024;2023-10-08T07:00:17;98936.19;;;9.47
71960;BMP280;59832;51.146;14.024;2023-10-08T07:03:04;98942.47;;;9.62
71960;BMP280;59832;51.146;14.024;2023-10-08T07:05:33;98944.69;;;9.64
71960;BMP280;59832;51.146;14.024;2023-10-08T07:08:03;98944.69;;;9.64
71960;BMP280;59832;51.146;14.024;2023-10-08T07:10:33;98961.13;;;9.66
71960;BMP280;59832;51.146;14.024;2023-10-08T07:13:03;98972.22;;;9.62
71960;BMP280;59832;51.146;14.024;2023-10-08T07:15:32;98971.03;;;9.59
71960;BMP280;59832;51.146;14.024;2023-10-08T07:17:58;98964.59;;;9.62
71960;BMP280;59832;51.146;14.024;2023-10-08T07:20:37;98973.28;;;9.61
71960;BMP280;59832;51.146;14.024;2023-10-08T07:23:06;98977.44;;;9.65
71960;BMP280;59832;51.146;14.024;2023-10-08T07:25:38;98981.88;;;9.68
71960;BMP280;59832;51.146;14.024;2023-10-08T07:28:05;98985.72;;;9.74
71960;BMP280;59832;51.146;14.024;2023-10-08T07:30:37;98994.84;;;9.75
71960;BMP280;59832;51.146;14.024;2023-10-08T07:33:10;98998.25;;;9.79
71960;BMP280;59832;51.146;14.024;2023-10-08T07:35:45;99002.50;;;9.87
71960;BMP280;59832;51.146;14.024;2023-10-08T07:38:26;99006.38;;;9.85
71960;BMP280;59832;51.146;14.024;2023-10-08T07:40:56;99009.59;;;9.94
71960;BMP280;59832;51.146;14.024;2023-10-08T07:43:23;99013.44;;;10.00
71960;BMP280;59832;51.146;14.024;2023-10-08T07:45:49;99014.59;;;10.03
71960;BMP280;59832;51.146;14.024;2023-10-08T07:48:16;99012.69;;;10.00
71960;BMP280;59832;51.146;14.024;2023-10-08T07:50:44;99022.56;;;10.01
71960;BMP280;59832;51.146;14.024;2023-10-08T07:53:13;99021.25;;;9.95
71960;BMP280;59832;51.146;14.024;2023-10-08T07:55:47;99026.91;;;10.01
71960;BMP280;59832;51.146;14.024;2023-10-08T07:58:15;99029.84;;;10.03
71960;BMP280;59832;51.146;14.024;2023-10-08T08:00:42;99035.19;;;10.10
71960;BMP280;59832;51.146;14.024;2023-10-08T08:03:20;99037.00;;;10.21
71960;BMP280;59832;51.146;14.024;2023-10-08T08:05:47;99043.38;;;10.27
71960;BMP280;59832;51.146;14.024;2023-10-08T08:08:15;99057.81;;;10.35
71960;BMP280;59832;51.146;14.024;2023-10-08T08:10:44;99066.69;;;10.17
71960;BMP280;59832;51.146;14.024;2023-10-08T08:13:11;99064.03;;;10.26
71960;BMP280;59832;51.146;14.024;2023-10-08T08:15:38;99070.28;;;10.28
71960;BMP280;59832;51.146;14.024;2023-10-08T08:18:13;99073.06;;;10.23
71960;BMP280;59832;51.146;14.024;2023-10-08T08:20:49;99071.03;;;10.29
71960;BMP280;59832;51.146;14.024;2023-10-08T08:23:15;99082.72;;;10.30
71960;BMP280;59832;51.146;14.024;2023-10-08T08:25:43;99076.69;;;10.47
71960;BMP280;59832;51.146;14.024;2023-10-08T08:28:22;99071.84;;;10.54
71960;BMP280;59832;51.146;14.024;2023-10-08T08:30:51;99067.66;;;10.49
71960;BMP280;59832;51.146;14.024;2023-10-08T08:33:21;99075.84;;;10.55
71960;BMP280;59832;51.146;14.024;2023-10-08T08:36:00;99084.97;;;10.68
71960;BMP280;59832;51.146;14.024;2023-10-08T08:38:32;99077.25;;;10.64
71960;BMP280;59832;51.146;14.024;2023-10-08T08:41:03;99075.13;;;10.78
71960;BMP280;59832;51.146;14.024;2023-10-08T08:43:34;99077.13;;;10.85
71960;BMP280;59832;51.146;14.024;2023-10-08T08:46:04;99084.69;;;10.81
71960;BMP280;59832;51.146;14.024;2023-10-08T08:48:34;99093.25;;;10.89
71960;BMP280;59832;51.146;14.024;2023-10-08T08:51:01;99091.81;;;10.88
71960;BMP280;59832;51.146;14.024;2023-10-08T08:53:28;99088.28;;;10.93
71960;BMP280;59832;51.146;14.024;2023-10-08T08:55:55;99084.22;;;10.92
71960;BMP280;59832;51.146;14.024;2023-10-08T08:58:22;99088.66;;;11.07
71960;BMP280;59832;51.146;14.024;2023-10-08T09:00:52;99088.41;;;10.96
71960;BMP280;59832;51.146;14.024;2023-10-08T09:03:19;99088.72;;;10.95
71960;BMP280;59832;51.146;14.024;2023-10-08T09:05:46;99090.06;;;10.92
71960;BMP280;59832;51.146;14.024;2023-10-08T09:08:18;99105.97;;;11.13
71960;BMP280;59832;51.146;14.024;2023-10-08T09:10:45;99108.50;;;11.25
71960;BMP280;59832;51.146;14.024;2023-10-08T09:13:21;99104.38;;;11.21
71960;BMP280;59832;51.146;14.024;2023-10-08T09:15:51;99123.22;;;11.56
71960;BMP280;59832;51.146;14.024;2023-10-08T09:18:22;99119.25;;;12.14
71960;BMP280;59832;51.146;14.024;2023-10-08T09:20:48;99117.28;;;12.70
71960;BMP280;59832;51.146;14.024;2023-10-08T09:23:16;99117.97;;;13.41
71960;BMP280;59832;51.146;14.024;2023-10-08T09:25:48;99109.34;;;14.10
71960;BMP280;59832;51.146;14.024;2023-10-08T09:28:25;99117.09;;;14.66
71960;BMP280;59832;51.146;14.024;2023-10-08T09:30:52;99126.06;;;15.05
71960;BMP280;59832;51.146;14.024;2023-10-08T09:33:21;99123.81;;;15.04
71960;BMP280;59832;51.146;14.024;2023-10-08T09:35:48;99126.69;;;14.20
71960;BMP280;59832;51.146;14.024;2023-10-08T09:38:14;99122.34;;;14.01
71960;BMP280;59832;51.146;14.024;2023-10-08T09:40:49;99122.00;;;13.22
71960;BMP280;59832;51.146;14.024;2023-10-08T09:43:16;99132.47;;;13.52
71960;BMP280;59832;51.146;14.024;2023-10-08T09:45:47;99124.56;;;13.80
71960;BMP280;59832;51.146;14.024;2023-10-08T09:48:16;99128.38;;;14.12
71960;BMP280;59832;51.146;14.024;2023-10-08T09:50:47;99133.41;;;14.05
71960;BMP280;59832;51.146;14.024;2023-10-08T09:53:14;99142.91;;;14.54
71960;BMP280;59832;51.146;14.024;2023-10-08T09:55:56;99135.03;;;14.40
71960;BMP280;59832;51.146;14.024;2023-10-08T09:58:25;99141.00;;;14.02
71960;BMP280;59832;51.146;14.024;2023-10-08T10:00:55;99149.06;;;14.23
71960;BMP280;59832;51.146;14.024;2023-10-08T10:03:25;99144.66;;;13.82
71960;BMP280;59832;51.146;14.024;2023-10-08T10:05:53;99158.59;;;13.61
71960;BMP280;59832;51.146;14.024;2023-10-08T10:08:25;99153.81;;;13.25
71960;BMP280;59832;51.146;14.024;2023-10-08T10:11:02;99165.13;;;12.89
71960;BMP280;59832;51.146;14.024;2023-10-08T10:13:35;99157.47;;;12.73
71960;BMP280;59832;51.146;14.024;2023-10-08T10:16:09;99167.59;;;12.86
71960;BMP280;59832;51.146;14.024;2023-10-08T10:18:36;99170.53;;;13.57
71960;BMP280;59832;51.146;14.024;2023-10-08T10:23:43;99182.16;;;15.10
71960;BMP280;59832;51.146;14.024;2023-10-08T10:29:21;99172.34;;;15.49
71960;BMP280;59832;51.146;14.024;2023-10-08T10:31:51;99176.75;;;15.19
71960;BMP280;59832;51.146;14.024;2023-10-08T10:34:24;99167.34;;;14.48
71960;BMP280;59832;51.146;14.024;2023-10-08T10:36:56;99179.28;;;13.95
71960;BMP280;59832;51.146;14.024;2023-10-08T10:39:25;99176.69;;;13.53
71960;BMP280;59832;51.146;14.024;2023-10-08T10:41:54;99178.78;;;13.32
71960;BMP280;59832;51.146;14.024;2023-10-08T10:44:24;99185.94;;;13.22
71960;BMP280;59832;51.146;14.024;2023-10-08T10:46:51;99178.53;;;13.37
71960;BMP280;59832;51.146;14.024;2023-10-08T10:49:18;99179.69;;;13.97
71960;BMP280;59832;51.146;14.024;2023-10-08T10:51:49;99177.84;;;14.39
71960;BMP280;59832;51.146;14.024;2023-10-08T10:54:20;99174.25;;;14.96
71960;BMP280;59832;51.146;14.024;2023-10-08T10:56:51;99177.88;;;14.65
71960;BMP280;59832;51.146;14.024;2023-10-08T10:59:30;99178.00;;;14.27
71960;BMP280;59832;51.146;14.024;2023-10-08T11:02:06;99164.16;;;13.86
71960;BMP280;59832;51.146;14.024;2023-10-08T11:04:47;99168.69;;;14.15
71960;BMP280;59832;51.146;14.024;2023-10-08T11:07:16;99170.47;;;14.60
71960;BMP280;59832;51.146;14.024;2023-10-08T11:09:44;99171.06;;;15.03
71960;BMP280;59832;51.146;14.024;2023-10-08T11:12:14;99166.06;;;15.47
71960;BMP280;59832;51.146;14.024;2023-10-08T11:14:46;99178.19;;;15.83
71960;BMP280;59832;51.146;14.024;2023-10-08T11:17:18;99175.53;;;16.16
71960;BMP280;59832;51.146;14.024;2023-10-08T11:19:48;99162.50;;;15.92
71960;BMP280;59832;51.146;14.024;2023-10-08T11:22:18;99176.41;;;15.50
71960;BMP280;59832;51.146;14.024;2023-10-08T11:24:45;99182.19;;;15.14
71960;BMP280;59832;51.146;14.024;2023-10-08T11:27:18;99177.22;;;14.98
71960;BMP280;59832;51.146;14.024;2023-10-08T11:30:02;99172.66;;;15.14
71960;BMP280;59832;51.146;14.024;2023-10-08T11:32:38;99178.47;;;14.82
71960;BMP280;59832;51.146;14.024;2023-10-08T11:35:05;99171.81;;;14.28
71960;BMP280;59832;51.146;14.024;2023-10-08T11:37:46;99179.16;;;13.88
71960;BMP280;59832;51.146;14.024;2023-10-08T11:40:24;99169.88;;;13.80
71960;BMP280;59832;51.146;14.024;2023-10-08T11:42:56;99170.47;;;13.73
71960;BMP280;59832;51.146;14.024;2023-10-08T11:45:26;99157.97;;;13.87
71960;BMP280;59832;51.146;14.024;2023-10-08T11:47:53;99162.88;;;13.76
71960;BMP280;59832;51.146;14.024;2023-10-08T11:50:27;99160.84;;;13.66
71960;BMP280;59832;51.146;14.024;2023-10-08T11:52:58;99160.16;;;13.50
71960;BMP280;59832;51.146;14.024;2023-10-08T11:55:31;99163.22;;;13.56
71960;BMP280;59832;51.146;14.024;2023-10-08T11:58:04;99160.13;;;13.66
71960;BMP280;59832;51.146;14.024;2023-10-08T12:00:38;99148.88;;;13.90
71960;BMP280;59832;51.146;14.024;2023-10-08T12:03:14;99155.72;;;14.05
71960;BMP280;59832;51.146;14.024;2023-10-08T12:05:48;99153.34;;;14.19
71960;BMP280;59832;51.146;14.024;2023-10-08T12:08:18;99155.75;;;14.31
71960;BMP280;59832;51.146;14.024;2023-10-08T12:10:47;99158.94;;;14.24
71960;BMP280;59832;51.146;14.024;2023-10-08T12:13:15;99152.50;;;13.89
71960;BMP280;59832;51.146;14.024;2023-10-08T12:15:45;99152.13;;;13.90
71960;BMP280;59832;51.146;14.024;2023-10-08T12:18:13;99154.91;;;13.82
71960;BMP280;59832;51.146;14.024;2023-10-08T12:20:56;99156.22;;;13.72
71960;BMP280;59832;51.146;14.024;2023-10-08T12:23:22;99160.84;;;13.66
71960;BMP280;59832;51.146;14.024;2023-10-08T12:25:55;99157.50;;;13.62
71960;BMP280;59832;51.146;14.024;2023-10-08T12:28:23;99147.47;;;13.35
71960;BMP280;59832;51.146;14.024;2023-10-08T12:30:51;99146.84;;;13.41
71960;BMP280;59832;51.146;14.024;2023-10-08T12:33:21;99144.97;;;13.38
71960;BMP280;59832;51.146;14.024;2023-10-08T12:35:50;99146.72;;;13.34
71960;BMP280;59832;51.146;14.024;2023-10-08T12:38:19;99142.66;;;13.33
71960;BMP280;59832;51.146;14.024;2023-10-08T12:40:49;99146.03;;;13.37
71960;BMP280;59832;51.146;14.024;2023-10-08T12:43:23;99145.22;;;13.33
71960;BMP280;59832;51.146;14.024;2023-10-08T12:45:54;99149.56;;;13.29
71960;BMP280;59832;51.146;14.024;2023-10-08T12:48:25;99151.63;;;13.23
71960;BMP280;59832;51.146;14.024;2023-10-08T12:50:53;99146.38;;;13.16
71960;BMP280;59832;51.146;14.024;2023-10-08T12:53:24;99151.06;;;13.14
71960;BMP280;59832;51.146;14.024;2023-10-08T12:55:54;99153.28;;;13.16
71960;BMP280;59832;51.146;14.024;2023-10-08T12:58:21;99158.16;;;13.21
71960;BMP280;59832;51.146;14.024;2023-10-08T13:00:53;99133.84;;;13.11
71960;BMP280;59832;51.146;14.024;2023-10-08T13:03:26;99120.53;;;13.21
71960;BMP280;59832;51.146;14.024;2023-10-08T13:05:57;99122.63;;;13.35
71960;BMP280;59832;51.146;14.024;2023-10-08T13:08:31;99120.75;;;13.51
71960;BMP280;59832;51.146;14.024;2023-10-08T13:10:58;99130.56;;;13.49
71960;BMP280;59832;51.146;14.024;2023-10-08T13:13:28;99135.19;;;13.24
71960;BMP280;59832;51.146;14.024;2023-10-08T13:15:55;99121.88;;;13.15
71960;BMP280;59832;51.146;14.024;2023-10-08T13:18:23;99109.97;;;13.04
71960;BMP280;59832;51.146;14.024;2023-10-08T13:20:52;99106.72;;;13.07
71960;BMP280;59832;51.146;14.024;2023-10-08T13:23:19;99103.84;;;13.08
71960;BMP280;59832;51.146;14.024;2023-10-08T13:25:47;99101.59;;;13.07
71960;BMP280;59832;51.146;14.024;2023-10-08T13:28:21;99096.97;;;13.12
71960;BMP280;59832;51.146;14.024;2023-10-08T13:30:51;99102.69;;;13.25
71960;BMP280;59832;51.146;14.024;2023-10-08T13:33:22;99094.50;;;13.35
71960;BMP280;59832;51.146;14.024;2023-10-08T13:35:49;99098.28;;;13.41
71960;BMP280;59832;51.146;14.024;2023-10-08T13:38:32;99102.50;;;13.53
71960;BMP280;59832;51.146;14.024;2023-10-08T13:40:59;99095.25;;;13.55
71960;BMP280;59832;51.146;14.024;2023-10-08T13:43:30;99091.94;;;13.35
71960;BMP280;59832;51.146;14.024;2023-10-08T13:46:04;99101.69;;;13.49
71960;BMP280;59832;51.146;14.024;2023-10-08T13:48:34;99105.47;;;13.55
71960;BMP280;59832;51.146;14.024;2023-10-08T13:51:03;99105.66;;;13.65
71960;BMP280;59832;51.146;14.024;2023-10-08T13:53:31;99106.44;;;13.89
71960;BMP280;59832;51.146;14.024;2023-10-08T13:55:59;99099.59;;;13.96
71960;BMP280;59832;51.146;14.024;2023-10-08T13:58:31;99114.03;;;14.08
71960;BMP280;59832;51.146;14.024;2023-10-08T14:01:01;99107.28;;;13.96
71960;BMP280;59832;51.146;14.024;2023-10-08T14:03:27;99105.16;;;14.24
71960;BMP280;59832;51.146;14.024;2023-10-08T14:05:58;99106.28;;;14.23
71960;BMP280;59832;51.146;14.024;2023-10-08T14:08:29;99121.66;;;14.27
71960;BMP280;59832;51.146;14.024;2023-10-08T14:10:57;99113.81;;;14.39
71960;BMP280;59832;51.146;14.024;2023-10-08T14:13:30;99112.31;;;14.38
71960;BMP280;59832;51.146;14.024;2023-10-08T14:15:58;99118.47;;;14.34
71960;BMP280;59832;51.146;14.024;2023-10-08T14:18:25;99116.69;;;14.11
71960;BMP280;59832;51.146;14.024;2023-10-08T14:20:55;99120.97;;;13.43
71960;BMP280;59832;51.146;14.024;2023-10-08T14:23:23;99119.41;;;13.38
71960;BMP280;59832;51.146;14.024;2023-10-08T14:25:52;99118.91;;;13.33
71960;BMP280;59832;51.146;14.024;2023-10-08T14:28:21;99118.72;;;13.41
71960;BMP280;59832;51.146;14.024;2023-10-08T14:30:49;99124.25;;;13.43